sensor_id;sensor_type;location;lat;lon;timestamp;P1;durP1;ratioP1;P2;durP2;ratioP2
57615;SDS011;43816;52.054;-9.494;2023-07-09T00:00:02;2.78;;;1.30;;
57615;SDS011;43816;52.054;-9.494;2023-07-09T00:00:17;2.58;;;1.20;;
57615;SDS011;43816;52.054;-9.494;2023-07-09T00:00:28;2.92;;;1.30;;
57615;SDS011;43816;52.054;-9.494;2023-07-09T00:00:38;3.23;;;1.30;;
57615;SDS011;43816;52.054;-9.494;2023-07-09T00:00:49;3.07;;;1.43;;
57615;SDS011;43816;52.054;-9.494;2023-07-09T00:00:59;3.05;;;1.48;;
57615;SDS011;43816;52.054;-9.494;2023-07-09T00:01:14;2.65;;;1.30;;
57615;SDS011;43816;52.054;-9.494;2023-07-09T00:01:25;1.90;;;1.10;;
57615;SDS011;43816;52.054;-9.494;2023-07-09T00:01:35;2.00;;;1.10;;
57615;SDS011;43816;52.054;-9.494;2023-07-09T00:01:46;2.15;;;1.20;;
57615;SDS011;43816;52.054;-9.494;2023-07-09T00:01:56;2.13;;;1.20;;
57615;SDS011;43816;52.054;-9.494;2023-07-09T00:02:08;2.05;;;1.20;;
57615;SDS011;43816;52.054;-9.494;2023-07-09T00:02:24;2.00;;;1.13;;
57615;SDS011;43816;52.054;-9.494;2023-07-09T00:02:35;1.88;;;1.10;;
57615;SDS011;43816;52.054;-9.494;2023-07-09T00:02:45;2.00;;;1.20;;
57615;SDS011;43816;52.054;-9.494;2023-07-09T00:02:56;2.30;;;1.20;;
57615;SDS011;43816;52.054;-9.494;2023-07-09T00:03:07;2.33;;;1.10;;
57615;SDS011;43816;52.054;-9.494;2023-07-09T00:03:20;2.63;;;1.10;;
57615;SDS011;43816;52.054;-9.494;2023-07-09T00:03:30;2.28;;;1.10;;
57615;SDS011;43816;52.054;-9.494;2023-07-09T00:03:41;2.13;;;1.13;;
57615;SDS011;43816;52.054;-9.494;2023-07-09T00:03:51;1.83;;;1.10;;
57615;SDS011;43816;52.054;-9.494;2023-07-09T00:04:01;2.35;;;1.20;;
57615;SDS011;43816;52.054;-9.494;2023-07-09T00:04:12;2.50;;;1.20;;
57615;SDS011;43816;52.054;-9.494;2023-07-09T00:04:22;2.00;;;1.20;;
57615;SDS011;43816;52.054;-9.494;2023-07-09T00:04:33;1.65;;;1.10;;
57615;SDS011;43816;52.054;-9.494;2023-07-09T00:04:43;2.17;;;1.27;;
57615;SDS011;43816;52.054;-9.494;2023-07-09T00:04:54;2.87;;;1.30;;
57615;SDS011;43816;52.054;-9.494;2023-07-09T00:05:04;3.40;;;1.40;;
57615;SDS011;43816;52.054;-9.494;2023-07-09T00:05:16;2.97;;;1.27;;
57615;SDS011;43816;52.054;-9.494;2023-07-09T00:05:26;3.13;;;1.48;;
57615;SDS011;43816;52.054;-9.494;2023-07-09T00:05:37;2.70;;;1.40;;
57615;SDS011;43816;52.054;-9.494;2023-07-09T00:05:48;2.60;;;1.27;;
57615;SDS011;43816;52.054;-9.494;2023-07-09T00:05:59;1.65;;;1.02;;
57615;SDS011;43816;52.054;-9.494;2023-07-09T00:06:10;1.73;;;1.10;;
57615;SDS011;43816;52.054;-9.494;2023-07-09T00:06:22;1.80;;;1.13;;
57615;SDS011;43816;52.054;-9.494;2023-07-09T00:06:33;2.13;;;1.20;;
57615;SDS011;43816;52.054;-9.494;2023-07-09T00:06:44;2.13;;;1.30;;
57615;SDS011;43816;52.054;-9.494;2023-07-09T00:06:55;2.47;;;1.23;;
57615;SDS011;43816;52.054;-9.494;2023-07-09T00:07:29;2.42;;;1.10;;
57615;SDS011;43816;52.054;-9.494;2023-07-09T00:07:41;1.60;;;1.08;;
57615;SDS011;43816;52.054;-9.494;2023-07-09T00:07:53;1.48;;;0.90;;
57615;SDS011;43816;52.054;-9.494;2023-07-09T00:08:03;1.80;;;0.97;;
57615;SDS011;43816;52.054;-9.494;2023-07-09T00:08:39;1.92;;;1.25;;
57615;SDS011;43816;52.054;-9.494;2023-07-09T00:08:53;1.88;;;1.30;;
57615;SDS011;43816;52.054;-9.494;2023-07-09T00:09:04;2.15;;;1.15;;
57615;SDS011;43816;52.054;-9.494;2023-07-09T00:09:16;2.35;;;1.08;;
57615;SDS011;43816;52.054;-9.494;2023-07-09T00:09:29;2.30;;;1.10;;
57615;SDS011;43816;52.054;-9.494;2023-07-09T00:09:39;2.10;;;1.00;;
57615;SDS011;43816;52.054;-9.494;2023-07-09T00:09:50;2.00;;;1.10;;
57615;SDS011;43816;52.054;-9.494;2023-07-09T00:10:00;1.83;;;1.00;;
57615;SDS011;43816;52.054;-9.494;2023-07-09T00:10:15;1.92;;;1.10;;
57615;SDS011;43816;52.054;-9.494;2023-07-09T00:10:27;2.22;;;1.10;;
57615;SDS011;43816;52.054;-9.494;2023-07-09T00:10:37;1.77;;;1.00;;
57615;SDS011;43816;52.054;-9.494;2023-07-09T00:10:47;1.70;;;0.93;;
57615;SDS011;43816;52.054;-9.494;2023-07-09T00:10:58;1.83;;;1.05;;
57615;SDS011;43816;52.054;-9.494;2023-07-09T00:11:08;2.20;;;1.13;;
57615;SDS011;43816;52.054;-9.494;2023-07-09T00:11:18;2.53;;;1.30;;
57615;SDS011;43816;52.054;-9.494;2023-07-09T00:11:29;2.22;;;1.20;;
57615;SDS011;43816;52.054;-9.494;2023-07-09T00:11:39;2.47;;;1.23;;
57615;SDS011;43816;52.054;-9.494;2023-07-09T00:11:50;2.85;;;1.30;;
57615;SDS011;43816;52.054;-9.494;2023-07-09T00:12:01;2.92;;;1.40;;
57615;SDS011;43816;52.054;-9.494;2023-07-09T00:12:15;2.37;;;1.30;;
57615;SDS011;43816;52.054;-9.494;2023-07-09T00:12:26;2.80;;;1.20;;
57615;SDS011;43816;52.054;-9.494;2023-07-09T00:12:37;2.80;;;1.10;;
57615;SDS011;43816;52.054;-9.494;2023-07-09T00:12:47;3.20;;;1.20;;
57615;SDS011;43816;52.054;-9.494;2023-07-09T00:12:58;2.08;;;1.00;;
57615;SDS011;43816;52.054;-9.494;2023-07-09T00:13:08;2.43;;;1.10;;
57615;SDS011;43816;52.054;-9.494;2023-07-09T00:13:18;2.23;;;1.07;;
57615;SDS011;43816;52.054;-9.494;2023-07-09T00:13:30;2.13;;;1.17;;
57615;SDS011;43816;52.054;-9.494;2023-07-09T00:13:40;1.98;;;1.25;;
57615;SDS011;43816;52.054;-9.494;2023-07-09T00:13:51;2.00;;;1.30;;
57615;SDS011;43816;52.054;-9.494;2023-07-09T00:14:01;2.00;;;1.17;;
57615;SDS011;43816;52.054;-9.494;2023-07-09T00:14:14;2.55;;;1.17;;
57615;SDS011;43816;52.054;-9.494;2023-07-09T00:14:25;2.50;;;1.20;;
57615;SDS011;43816;52.054;-9.494;2023-07-09T00:14:36;2.50;;;1.20;;
57615;SDS011;43816;52.054;-9.494;2023-07-09T00:14:46;1.93;;;1.07;;
57615;SDS011;43816;52.054;-9.494;2023-07-09T00:14:57;2.05;;;1.10;;
57615;SDS011;43816;52.054;-9.494;2023-07-09T00:15:08;1.90;;;1.10;;
57615;SDS011;43816;52.054;-9.494;2023-07-09T00:15:20;1.80;;;1.10;;
57615;SDS011;43816;52.054;-9.494;2023-07-09T00:15:30;1.98;;;1.20;;
57615;SDS011;43816;52.054;-9.494;2023-07-09T00:15:41;2.23;;;1.20;;
57615;SDS011;43816;52.054;-9.494;2023-07-09T00:15:51;2.30;;;1.10;;
57615;SDS011;43816;52.054;-9.494;2023-07-09T00:16:16;2.25;;;1.02;;
57615;SDS011;43816;52.054;-9.494;2023-07-09T00:16:29;2.20;;;1.10;;
57615;SDS011;43816;52.054;-9.494;2023-07-09T00:16:40;2.20;;;1.10;;
57615;SDS011;43816;52.054;-9.494;2023-07-09T00:16:51;2.05;;;1.00;;
57615;SDS011;43816;52.054;-9.494;2023-07-09T00:17:02;2.10;;;1.10;;
57615;SDS011;43816;52.054;-9.494;2023-07-09T00:17:18;1.90;;;1.20;;
57615;SDS011;43816;52.054;-9.494;2023-07-09T00:17:40;2.20;;;1.15;;
57615;SDS011;43816;52.054;-9.494;2023-07-09T00:17:51;1.77;;;1.10;;
57615;SDS011;43816;52.054;-9.494;2023-07-09T00:18:01;1.87;;;1.10;;
57615;SDS011;43816;52.054;-9.494;2023-07-09T00:18:11;1.80;;;1.10;;
57615;SDS011;43816;52.054;-9.494;2023-07-09T00:18:21;1.83;;;1.07;;
57615;SDS011;43816;52.054;-9.494;2023-07-09T00:18:32;1.67;;;1.13;;
57615;SDS011;43816;52.054;-9.494;2023-07-09T00:18:42;2.05;;;1.25;;
57615;SDS011;43816;52.054;-9.494;2023-07-09T00:18:52;2.43;;;1.30;;
57615;SDS011;43816;52.054;-9.494;2023-07-09T00:19:04;2.58;;;1.25;;
57615;SDS011;43816;52.054;-9.494;2023-07-09T00:19:19;2.17;;;1.05;;
57615;SDS011;43816;52.054;-9.494;2023-07-09T00:19:30;1.80;;;0.95;;
57615;SDS011;43816;52.054;-9.494;2023-07-09T00:19:41;1.93;;;1.10;;
57615;SDS011;43816;52.054;-9.494;2023-07-09T00:19:51;2.05;;;1.15;;
57615;SDS011;43816;52.054;-9.494;2023-07-09T00:20:02;2.30;;;1.20;;
57615;SDS011;43816;52.054;-9.494;2023-07-09T00:20:15;1.88;;;1.00;;
57615;SDS011;43816;52.054;-9.494;2023-07-09T00:20:27;1.63;;;0.90;;
57615;SDS011;43816;52.054;-9.494;2023-07-09T00:20:37;1.40;;;0.90;;
57615;SDS011;43816;52.054;-9.494;2023-07-09T00:20:48;1.30;;;0.90;;
57615;SDS011;43816;52.054;-9.494;2023-07-09T00:20:58;1.77;;;1.05;;
57615;SDS011;43816;52.054;-9.494;2023-07-09T00:21:08;1.87;;;1.07;;
57615;SDS011;43816;52.054;-9.494;2023-07-09T00:21:19;1.88;;;1.05;;
57615;SDS011;43816;52.054;-9.494;2023-07-09T00:21:30;1.70;;;1.00;;
57615;SDS011;43816;52.054;-9.494;2023-07-09T00:21:41;2.42;;;1.05;;
57615;SDS011;43816;52.054;-9.494;2023-07-09T00:21:52;2.72;;;1.08;;
57615;SDS011;43816;52.054;-9.494;2023-07-09T00:22:02;3.00;;;1.10;;
57615;SDS011;43816;52.054;-9.494;2023-07-09T00:22:14;2.33;;;1.10;;
57615;SDS011;43816;52.054;-9.494;2023-07-09T00:22:26;2.28;;;1.05;;
57615;SDS011;43816;52.054;-9.494;2023-07-09T00:22:37;1.88;;;0.80;;
57615;SDS011;43816;52.054;-9.494;2023-07-09T00:22:47;2.00;;;0.97;;
57615;SDS011;43816;52.054;-9.494;2023-07-09T00:22:58;1.50;;;0.98;;
57615;SDS011;43816;52.054;-9.494;2023-07-09T00:23:11;1.63;;;1.13;;
57615;SDS011;43816;52.054;-9.494;2023-07-09T00:23:21;1.92;;;1.20;;
57615;SDS011;43816;52.054;-9.494;2023-07-09T00:23:32;2.22;;;1.30;;
57615;SDS011;43816;52.054;-9.494;2023-07-09T00:23:42;2.40;;;1.30;;
57615;SDS011;43816;52.054;-9.494;2023-07-09T00:23:52;2.40;;;1.30;;
57615;SDS011;43816;52.054;-9.494;2023-07-09T00:24:02;1.98;;;1.17;;
57615;SDS011;43816;52.054;-9.494;2023-07-09T00:24:13;1.57;;;1.03;;
57615;SDS011;43816;52.054;-9.494;2023-07-09T00:24:24;1.40;;;0.88;;
57615;SDS011;43816;52.054;-9.494;2023-07-09T00:24:34;1.50;;;0.90;;
57615;SDS011;43816;52.054;-9.494;2023-07-09T00:24:45;1.40;;;0.88;;
57615;SDS011;43816;52.054;-9.494;2023-07-09T00:24:57;1.50;;;1.00;;
57615;SDS011;43816;52.054;-9.494;2023-07-09T00:25:09;1.70;;;1.00;;
57615;SDS011;43816;52.054;-9.494;2023-07-09T00:25:20;1.85;;;0.93;;
57615;SDS011;43816;52.054;-9.494;2023-07-09T00:25:31;1.80;;;0.87;;
57615;SDS011;43816;52.054;-9.494;2023-07-09T00:25:42;1.60;;;0.82;;
57615;SDS011;43816;52.054;-9.494;2023-07-09T00:25:53;1.65;;;1.00;;
57615;SDS011;43816;52.054;-9.494;2023-07-09T00:26:07;1.73;;;1.10;;
57615;SDS011;43816;52.054;-9.494;2023-07-09T00:26:19;1.77;;;1.10;;
57615;SDS011;43816;52.054;-9.494;2023-07-09T00:26:29;1.70;;;1.20;;
57615;SDS011;43816;52.054;-9.494;2023-07-09T00:26:41;1.83;;;1.13;;
57615;SDS011;43816;52.054;-9.494;2023-07-09T00:26:51;2.00;;;1.10;;
57615;SDS011;43816;52.054;-9.494;2023-07-09T00:27:02;1.93;;;1.00;;
57615;SDS011;43816;52.054;-9.494;2023-07-09T00:27:12;1.90;;;1.00;;
57615;SDS011;43816;52.054;-9.494;2023-07-09T00:27:25;1.70;;;1.00;;
57615;SDS011;43816;52.054;-9.494;2023-07-09T00:27:39;1.75;;;1.00;;
57615;SDS011;43816;52.054;-9.494;2023-07-09T00:27:49;1.67;;;1.02;;
57615;SDS011;43816;52.054;-9.494;2023-07-09T00:28:00;1.80;;;1.10;;
57615;SDS011;43816;52.054;-9.494;2023-07-09T00:28:13;1.90;;;1.20;;
57615;SDS011;43816;52.054;-9.494;2023-07-09T00:28:27;2.10;;;1.13;;
57615;SDS011;43816;52.054;-9.494;2023-07-09T00:28:37;1.83;;;1.03;;
57615;SDS011;43816;52.054;-9.494;2023-07-09T00:28:48;2.00;;;1.00;;
57615;SDS011;43816;52.054;-9.494;2023-07-09T00:28:58;2.05;;;1.00;;
57615;SDS011;43816;52.054;-9.494;2023-07-09T00:29:10;2.08;;;1.00;;
57615;SDS011;43816;52.054;-9.494;2023-07-09T00:29:20;1.77;;;1.00;;
57615;SDS011;43816;52.054;-9.494;2023-07-09T00:29:31;1.38;;;0.90;;
57615;SDS011;43816;52.054;-9.494;2023-07-09T00:29:41;1.70;;;1.00;;
57615;SDS011;43816;52.054;-9.494;2023-07-09T00:29:52;2.00;;;1.10;;
57615;SDS011;43816;52.054;-9.494;2023-07-09T00:30:03;2.05;;;1.00;;
57615;SDS011;43816;52.054;-9.494;2023-07-09T00:30:16;1.70;;;0.97;;
57615;SDS011;43816;52.054;-9.494;2023-07-09T00:30:28;1.80;;;1.00;;
57615;SDS011;43816;52.054;-9.494;2023-07-09T00:30:38;1.97;;;1.10;;
57615;SDS011;43816;52.054;-9.494;2023-07-09T00:30:49;1.57;;;1.10;;
57615;SDS011;43816;52.054;-9.494;2023-07-09T00:30:59;1.90;;;1.17;;
57615;SDS011;43816;52.054;-9.494;2023-07-09T00:31:14;1.77;;;1.10;;
57615;SDS011;43816;52.054;-9.494;2023-07-09T00:31:25;1.95;;;1.13;;
57615;SDS011;43816;52.054;-9.494;2023-07-09T00:31:36;2.10;;;1.00;;
57615;SDS011;43816;52.054;-9.494;2023-07-09T00:31:47;1.95;;;1.00;;
57615;SDS011;43816;52.054;-9.494;2023-07-09T00:31:57;1.77;;;0.97;;
57615;SDS011;43816;52.054;-9.494;2023-07-09T00:32:10;1.77;;;1.00;;
57615;SDS011;43816;52.054;-9.494;2023-07-09T00:32:22;1.85;;;1.15;;
57615;SDS011;43816;52.054;-9.494;2023-07-09T00:32:32;1.97;;;1.27;;
57615;SDS011;43816;52.054;-9.494;2023-07-09T00:32:42;1.67;;;1.27;;
57615;SDS011;43816;52.054;-9.494;2023-07-09T00:32:53;1.53;;;1.13;;
57615;SDS011;43816;52.054;-9.494;2023-07-09T00:33:03;1.33;;;1.00;;
57615;SDS011;43816;52.054;-9.494;2023-07-09T00:33:14;1.40;;;1.00;;
57615;SDS011;43816;52.054;-9.494;2023-07-09T00:33:26;1.50;;;0.90;;
57615;SDS011;43816;52.054;-9.494;2023-07-09T00:33:36;1.50;;;0.90;;
57615;SDS011;43816;52.054;-9.494;2023-07-09T00:33:48;1.73;;;0.90;;
57615;SDS011;43816;52.054;-9.494;2023-07-09T00:33:58;1.50;;;0.95;;
57615;SDS011;43816;52.054;-9.494;2023-07-09T00:34:09;1.50;;;0.90;;
57615;SDS011;43816;52.054;-9.494;2023-07-09T00:34:23;1.40;;;0.75;;
57615;SDS011;43816;52.054;-9.494;2023-07-09T00:34:33;1.55;;;0.82;;
57615;SDS011;43816;52.054;-9.494;2023-07-09T00:34:44;1.80;;;0.90;;
57615;SDS011;43816;52.054;-9.494;2023-07-09T00:34:54;1.87;;;1.10;;
57615;SDS011;43816;52.054;-9.494;2023-07-09T00:35:04;1.70;;;1.00;;
57615;SDS011;43816;52.054;-9.494;2023-07-09T00:35:15;1.80;;;1.07;;
57615;SDS011;43816;52.054;-9.494;2023-07-09T00:35:25;2.00;;;1.10;;
57615;SDS011;43816;52.054;-9.494;2023-07-09T00:35:36;2.20;;;1.13;;
57615;SDS011;43816;52.054;-9.494;2023-07-09T00:35:46;2.30;;;1.30;;
57615;SDS011;43816;52.054;-9.494;2023-07-09T00:35:57;1.90;;;1.20;;
57615;SDS011;43816;52.054;-9.494;2023-07-09T00:36:16;1.77;;;1.20;;
57615;SDS011;43816;52.054;-9.494;2023-07-09T00:36:30;2.10;;;1.17;;
57615;SDS011;43816;52.054;-9.494;2023-07-09T00:36:41;1.83;;;1.02;;
57615;SDS011;43816;52.054;-9.494;2023-07-09T00:36:52;1.40;;;0.90;;
57615;SDS011;43816;52.054;-9.494;2023-07-09T00:37:03;1.40;;;0.90;;
57615;SDS011;43816;52.054;-9.494;2023-07-09T00:37:18;1.60;;;1.00;;
57615;SDS011;43816;52.054;-9.494;2023-07-09T00:37:30;1.55;;;0.90;;
57615;SDS011;43816;52.054;-9.494;2023-07-09T00:37:42;1.77;;;0.93;;
57615;SDS011;43816;52.054;-9.494;2023-07-09T00:37:53;1.58;;;0.90;;
57615;SDS011;43816;52.054;-9.494;2023-07-09T00:38:03;1.40;;;0.90;;
57615;SDS011;43816;52.054;-9.494;2023-07-09T00:38:18;1.30;;;0.90;;
57615;SDS011;43816;52.054;-9.494;2023-07-09T00:38:30;2.28;;;0.95;;
57615;SDS011;43816;52.054;-9.494;2023-07-09T00:38:40;2.30;;;1.00;;
57615;SDS011;43816;52.054;-9.494;2023-07-09T00:38:51;1.70;;;1.00;;
57615;SDS011;43816;52.054;-9.494;2023-07-09T00:39:01;1.50;;;1.08;;
57615;SDS011;43816;52.054;-9.494;2023-07-09T00:39:19;1.30;;;1.00;;
57615;SDS011;43816;52.054;-9.494;2023-07-09T00:39:30;1.80;;;0.90;;
57615;SDS011;43816;52.054;-9.494;2023-07-09T00:39:40;2.03;;;0.90;;
57615;SDS011;43816;52.054;-9.494;2023-07-09T00:39:51;2.20;;;1.08;;
57615;SDS011;43816;52.054;-9.494;2023-07-09T00:40:01;1.90;;;1.07;;
57615;SDS011;43816;52.054;-9.494;2023-07-09T00:40:19;2.07;;;1.20;;
57615;SDS011;43816;52.054;-9.494;2023-07-09T00:40:31;1.63;;;0.93;;
57615;SDS011;43816;52.054;-9.494;2023-07-09T00:41:01;1.20;;;0.80;;
57615;SDS011;43816;52.054;-9.494;2023-07-09T00:41:22;1.73;;;1.00;;
57615;SDS011;43816;52.054;-9.494;2023-07-09T00:41:36;1.63;;;1.00;;
57615;SDS011;43816;52.054;-9.494;2023-07-09T00:41:48;1.73;;;0.90;;
57615;SDS011;43816;52.054;-9.494;2023-07-09T00:41:59;1.67;;;0.93;;
57615;SDS011;43816;52.054;-9.494;2023-07-09T00:42:11;1.67;;;0.98;;
57615;SDS011;43816;52.054;-9.494;2023-07-09T00:42:26;1.30;;;1.00;;
57615;SDS011;43816;52.054;-9.494;2023-07-09T00:42:36;1.47;;;1.10;;
57615;SDS011;43816;52.054;-9.494;2023-07-09T00:42:47;1.50;;;1.00;;
57615;SDS011;43816;52.054;-9.494;2023-07-09T00:42:59;1.80;;;1.05;;
57615;SDS011;43816;52.054;-9.494;2023-07-09T00:43:10;1.48;;;1.00;;
57615;SDS011;43816;52.054;-9.494;2023-07-09T00:43:25;1.35;;;0.95;;
57615;SDS011;43816;52.054;-9.494;2023-07-09T00:43:40;1.50;;;1.00;;
57615;SDS011;43816;52.054;-9.494;2023-07-09T00:43:51;1.40;;;0.95;;
57615;SDS011;43816;52.054;-9.494;2023-07-09T00:44:31;2.08;;;1.10;;
57615;SDS011;43816;52.054;-9.494;2023-07-09T00:44:41;1.77;;;1.00;;
57615;SDS011;43816;52.054;-9.494;2023-07-09T00:44:52;1.67;;;1.00;;
57615;SDS011;43816;52.054;-9.494;2023-07-09T00:45:07;1.67;;;1.00;;
57615;SDS011;43816;52.054;-9.494;2023-07-09T00:45:29;1.67;;;0.90;;
57615;SDS011;43816;52.054;-9.494;2023-07-09T00:45:40;1.63;;;0.90;;
57615;SDS011;43816;52.054;-9.494;2023-07-09T00:47:15;1.48;;;1.00;;
57615;SDS011;43816;52.054;-9.494;2023-07-09T00:47:48;1.60;;;0.90;;
57615;SDS011;43816;52.054;-9.494;2023-07-09T00:48:24;1.45;;;0.85;;
57615;SDS011;43816;52.054;-9.494;2023-07-09T00:48:35;1.10;;;0.80;;
57615;SDS011;43816;52.054;-9.494;2023-07-09T00:48:46;1.33;;;0.90;;
57615;SDS011;43816;52.054;-9.494;2023-07-09T00:49:04;1.50;;;1.10;;
57615;SDS011;43816;52.054;-9.494;2023-07-09T00:49:26;1.77;;;1.20;;
57615;SDS011;43816;52.054;-9.494;2023-07-09T00:49:42;1.40;;;1.00;;
57615;SDS011;43816;52.054;-9.494;2023-07-09T00:49:56;1.70;;;1.07;;
57615;SDS011;43816;52.054;-9.494;2023-07-09T00:50:34;1.48;;;1.00;;
57615;SDS011;43816;52.054;-9.494;2023-07-09T00:50:49;1.17;;;0.98;;
57615;SDS011;43816;52.054;-9.494;2023-07-09T00:51:04;1.55;;;1.10;;
57615;SDS011;43816;52.054;-9.494;2023-07-09T00:51:21;1.75;;;0.95;;
57615;SDS011;43816;52.054;-9.494;2023-07-09T00:51:33;1.85;;;0.80;;
57615;SDS011;43816;52.054;-9.494;2023-07-09T00:51:47;2.47;;;1.02;;
57615;SDS011;43816;52.054;-9.494;2023-07-09T00:51:59;2.50;;;1.10;;
57615;SDS011;43816;52.054;-9.494;2023-07-09T00:52:42;1.95;;;1.20;;
57615;SDS011;43816;52.054;-9.494;2023-07-09T00:53:02;1.50;;;1.02;;
57615;SDS011;43816;52.054;-9.494;2023-07-09T00:53:19;1.40;;;0.90;;
57615;SDS011;43816;52.054;-9.494;2023-07-09T00:53:33;1.85;;;1.10;;
57615;SDS011;43816;52.054;-9.494;2023-07-09T00:53:44;1.83;;;1.20;;
57615;SDS011;43816;52.054;-9.494;2023-07-09T00:53:57;1.80;;;1.30;;
57615;SDS011;43816;52.054;-9.494;2023-07-09T00:54:57;1.67;;;1.00;;
57615;SDS011;43816;52.054;-9.494;2023-07-09T00:55:12;1.50;;;0.90;;
57615;SDS011;43816;52.054;-9.494;2023-07-09T00:55:28;1.25;;;0.90;;
57615;SDS011;43816;52.054;-9.494;2023-07-09T00:55:42;1.75;;;1.00;;
57615;SDS011;43816;52.054;-9.494;2023-07-09T00:55:57;1.67;;;1.00;;
57615;SDS011;43816;52.054;-9.494;2023-07-09T00:56:14;1.75;;;1.10;;
57615;SDS011;43816;52.054;-9.494;2023-07-09T00:56:32;2.13;;;1.20;;
57615;SDS011;43816;52.054;-9.494;2023-07-09T00:56:50;1.77;;;1.10;;
57615;SDS011;43816;52.054;-9.494;2023-07-09T00:57:05;1.80;;;1.08;;
57615;SDS011;43816;52.054;-9.494;2023-07-09T00:57:26;1.65;;;1.02;;
57615;SDS011;43816;52.054;-9.494;2023-07-09T00:57:38;2.20;;;1.17;;
57615;SDS011;43816;52.054;-9.494;2023-07-09T00:57:50;2.00;;;1.10;;
57615;SDS011;43816;52.054;-9.494;2023-07-09T00:58:04;1.48;;;1.00;;
57615;SDS011;43816;52.054;-9.494;2023-07-09T00:58:17;1.23;;;0.95;;
57615;SDS011;43816;52.054;-9.494;2023-07-09T00:58:29;1.13;;;0.90;;
57615;SDS011;43816;52.054;-9.494;2023-07-09T00:58:42;1.30;;;0.90;;
57615;SDS011;43816;52.054;-9.494;2023-07-09T00:58:54;1.90;;;1.10;;
57615;SDS011;43816;52.054;-9.494;2023-07-09T00:59:09;2.17;;;1.23;;
57615;SDS011;43816;52.054;-9.494;2023-07-09T00:59:25;2.45;;;1.25;;
57615;SDS011;43816;52.054;-9.494;2023-07-09T00:59:38;2.25;;;1.13;;
57615;SDS011;43816;52.054;-9.494;2023-07-09T00:59:55;1.50;;;1.08;;
57615;SDS011;43816;52.054;-9.494;2023-07-09T01:00:10;1.13;;;1.00;;
57615;SDS011;43816;52.054;-9.494;2023-07-09T01:00:25;1.20;;;0.93;;
57615;SDS011;43816;52.054;-9.494;2023-07-09T01:00:44;1.25;;;0.90;;
57615;SDS011;43816;52.054;-9.494;2023-07-09T01:01:00;1.20;;;0.90;;
57615;SDS011;43816;52.054;-9.494;2023-07-09T01:01:15;1.58;;;1.00;;
57615;SDS011;43816;52.054;-9.494;2023-07-09T01:01:28;1.50;;;1.05;;
57615;SDS011;43816;52.054;-9.494;2023-07-09T01:01:39;1.42;;;1.05;;
57615;SDS011;43816;52.054;-9.494;2023-07-09T01:01:50;1.63;;;1.07;;
57615;SDS011;43816;52.054;-9.494;2023-07-09T01:02:01;1.80;;;1.17;;
57615;SDS011;43816;52.054;-9.494;2023-07-09T01:02:11;1.90;;;1.13;;
57615;SDS011;43816;52.054;-9.494;2023-07-09T01:02:21;1.63;;;1.17;;
57615;SDS011;43816;52.054;-9.494;2023-07-09T01:02:32;1.83;;;1.20;;
57615;SDS011;43816;52.054;-9.494;2023-07-09T01:02:44;1.70;;;1.20;;
57615;SDS011;43816;52.054;-9.494;2023-07-09T01:02:57;1.48;;;0.90;;
57615;SDS011;43816;52.054;-9.494;2023-07-09T01:03:09;1.55;;;0.85;;
57615;SDS011;43816;52.054;-9.494;2023-07-09T01:03:53;1.30;;;1.00;;
57615;SDS011;43816;52.054;-9.494;2023-07-09T01:04:06;1.67;;;1.00;;
57615;SDS011;43816;52.054;-9.494;2023-07-09T01:04:19;1.55;;;1.00;;
57615;SDS011;43816;52.054;-9.494;2023-07-09T01:04:30;1.50;;;1.10;;
57615;SDS011;43816;52.054;-9.494;2023-07-09T01:04:41;2.10;;;1.30;;
57615;SDS011;43816;52.054;-9.494;2023-07-09T01:04:56;2.03;;;1.20;;
57615;SDS011;43816;52.054;-9.494;2023-07-09T01:05:10;1.60;;;1.05;;
57615;SDS011;43816;52.054;-9.494;2023-07-09T01:05:22;1.67;;;1.00;;
57615;SDS011;43816;52.054;-9.494;2023-07-09T01:05:32;1.83;;;1.00;;
57615;SDS011;43816;52.054;-9.494;2023-07-09T01:05:43;1.83;;;1.00;;
57615;SDS011;43816;52.054;-9.494;2023-07-09T01:05:55;2.10;;;1.00;;
57615;SDS011;43816;52.054;-9.494;2023-07-09T01:06:07;2.15;;;1.05;;
57615;SDS011;43816;52.054;-9.494;2023-07-09T01:06:20;1.63;;;1.08;;
57615;SDS011;43816;52.054;-9.494;2023-07-09T01:06:42;1.38;;;0.93;;
57615;SDS011;43816;52.054;-9.494;2023-07-09T01:06:56;1.55;;;0.90;;
57615;SDS011;43816;52.054;-9.494;2023-07-09T01:07:07;1.30;;;0.90;;
57615;SDS011;43816;52.054;-9.494;2023-07-09T01:07:18;1.58;;;1.10;;
57615;SDS011;43816;52.054;-9.494;2023-07-09T01:07:28;1.70;;;1.20;;
57615;SDS011;43816;52.054;-9.494;2023-07-09T01:07:39;1.60;;;1.10;;
57615;SDS011;43816;52.054;-9.494;2023-07-09T01:07:50;1.23;;;1.00;;
57615;SDS011;43816;52.054;-9.494;2023-07-09T01:08:01;1.35;;;0.90;;
57615;SDS011;43816;52.054;-9.494;2023-07-09T01:08:11;1.43;;;0.93;;
57615;SDS011;43816;52.054;-9.494;2023-07-09T01:08:22;1.87;;;1.00;;
57615;SDS011;43816;52.054;-9.494;2023-07-09T01:08:33;1.95;;;1.00;;
57615;SDS011;43816;52.054;-9.494;2023-07-09T01:08:45;1.63;;;0.98;;
57615;SDS011;43816;52.054;-9.494;2023-07-09T01:08:55;1.15;;;0.90;;
57615;SDS011;43816;52.054;-9.494;2023-07-09T01:09:06;1.00;;;0.90;;
57615;SDS011;43816;52.054;-9.494;2023-07-09T01:09:17;1.40;;;1.00;;
57615;SDS011;43816;52.054;-9.494;2023-07-09T01:09:28;1.45;;;0.95;;
57615;SDS011;43816;52.054;-9.494;2023-07-09T01:09:38;1.37;;;0.90;;
57615;SDS011;43816;52.054;-9.494;2023-07-09T01:09:48;1.20;;;0.90;;
57615;SDS011;43816;52.054;-9.494;2023-07-09T01:09:59;1.52;;;1.00;;
57615;SDS011;43816;52.054;-9.494;2023-07-09T01:10:09;1.97;;;1.10;;
57615;SDS011;43816;52.054;-9.494;2023-07-09T01:10:19;2.27;;;1.13;;
57615;SDS011;43816;52.054;-9.494;2023-07-09T01:10:30;2.05;;;1.20;;
57615;SDS011;43816;52.054;-9.494;2023-07-09T01:10:40;1.53;;;1.03;;
57615;SDS011;43816;52.054;-9.494;2023-07-09T01:10:50;1.17;;;1.00;;
57615;SDS011;43816;52.054;-9.494;2023-07-09T01:11:01;1.08;;;0.90;;
57615;SDS011;43816;52.054;-9.494;2023-07-09T01:11:18;1.23;;;0.93;;
57615;SDS011;43816;52.054;-9.494;2023-07-09T01:11:31;1.30;;;0.90;;
57615;SDS011;43816;52.054;-9.494;2023-07-09T01:11:41;1.40;;;0.97;;
57615;SDS011;43816;52.054;-9.494;2023-07-09T01:11:51;1.43;;;1.00;;
57615;SDS011;43816;52.054;-9.494;2023-07-09T01:12:03;1.75;;;1.10;;
57615;SDS011;43816;52.054;-9.494;2023-07-09T01:12:17;1.30;;;0.90;;
57615;SDS011;43816;52.054;-9.494;2023-07-09T01:12:30;1.10;;;0.88;;
57615;SDS011;43816;52.054;-9.494;2023-07-09T01:12:40;1.40;;;1.00;;
57615;SDS011;43816;52.054;-9.494;2023-07-09T01:12:51;1.70;;;0.93;;
57615;SDS011;43816;52.054;-9.494;2023-07-09T01:13:02;1.60;;;1.00;;
57615;SDS011;43816;52.054;-9.494;2023-07-09T01:13:12;1.60;;;1.00;;
57615;SDS011;43816;52.054;-9.494;2023-07-09T01:13:23;1.63;;;1.10;;
57615;SDS011;43816;52.054;-9.494;2023-07-09T01:13:33;1.63;;;1.00;;
57615;SDS011;43816;52.054;-9.494;2023-07-09T01:13:44;1.37;;;1.00;;
57615;SDS011;43816;52.054;-9.494;2023-07-09T01:13:55;1.25;;;0.93;;
57615;SDS011;43816;52.054;-9.494;2023-07-09T01:14:13;1.42;;;0.90;;
57615;SDS011;43816;52.054;-9.494;2023-07-09T01:14:27;1.63;;;1.00;;
57615;SDS011;43816;52.054;-9.494;2023-07-09T01:14:37;1.65;;;1.05;;
57615;SDS011;43816;52.054;-9.494;2023-07-09T01:14:52;1.57;;;0.93;;
57615;SDS011;43816;52.054;-9.494;2023-07-09T01:15:05;1.80;;;1.00;;
57615;SDS011;43816;52.054;-9.494;2023-07-09T01:15:16;1.70;;;1.00;;
57615;SDS011;43816;52.054;-9.494;2023-07-09T01:15:27;1.63;;;0.97;;
57615;SDS011;43816;52.054;-9.494;2023-07-09T01:15:37;1.50;;;0.90;;
57615;SDS011;43816;52.054;-9.494;2023-07-09T01:15:47;1.77;;;0.90;;
57615;SDS011;43816;52.054;-9.494;2023-07-09T01:15:58;1.80;;;0.97;;
57615;SDS011;43816;52.054;-9.494;2023-07-09T01:16:08;1.67;;;1.00;;
57615;SDS011;43816;52.054;-9.494;2023-07-09T01:16:19;1.60;;;1.03;;
57615;SDS011;43816;52.054;-9.494;2023-07-09T01:16:32;1.55;;;1.00;;
57615;SDS011;43816;52.054;-9.494;2023-07-09T01:16:48;2.30;;;1.08;;
57615;SDS011;43816;52.054;-9.494;2023-07-09T01:17:01;2.03;;;1.10;;